首页
METAR-TAF:

METAR-TAF

机场 :

迪拜国际机场

杜拜, 阿拉伯联合酋长国

纬度: 25-15-10N, 经度: 055-21-52E, 海拔: 8米

当前天气观测

该预报发布于52分钟前的23:00 UTC
风速4节,风向
温度 30°C
湿度 46%
气压 1015 hPa
能见度10公里或以上
1500米以下无云,无积雨云

METAR: OMDB 212300Z 35004KT CAVOK 30/17 Q1015 NOSIG

时间: 03:52 (23:52 UTC)

预报

该预报发布于57分钟前的22:55 UTC
预报有效从22日的 00点(UTC)到 23日的 06点(UTC)
风速5节,风向
能见度10公里或以上
1500米以下无云,无积雨云
成为
从 22日的 04点(UTC)到 22日的 06点(UTC)
风速10节,风向
成为
从 22日的 08点(UTC)到 22日的 10点(UTC)
风速12节,风向西北
成为
从 22日的 16点(UTC)到 22日的 18点(UTC)
风速5节,风向南转南东

TAF: OMDB 212255Z 2200/2306 09005KT CAVOK BECMG 2204/2206 19010KT BECMG 2208/2210 31012KT BECMG 2216/2218 15005KT

超过4000个机场的气象观测和天气预报(METAR&TAF报告)。

可查询的气象台以黄色和红色小点在地图上表示。

将鼠标移到小点上方,可查看气象台名称。

然后点击查看天气观测和预报。

如需切换地图:点击带黑十字的绿色按钮放大地图;点击带横线的绿色按钮缩小地图;或者点击绿色箭头查看邻近地区的地图。


METAR-TAF: